sensor_id;sensor_type;location;lat;lon;timestamp;temperature;humidity
33139;DHT22;19501;50.948;5.316;2024-02-14T00:02:17;9.30;99.90
33139;DHT22;19501;50.948;5.316;2024-02-14T00:04:43;9.30;99.90
33139;DHT22;19501;50.948;5.316;2024-02-14T00:07:08;9.30;99.90
33139;DHT22;19501;50.948;5.316;2024-02-14T00:09:34;9.30;99.90
33139;DHT22;19501;50.948;5.316;2024-02-14T00:12:00;9.40;99.90
33139;DHT22;19501;50.948;5.316;2024-02-14T00:14:26;9.40;99.90
33139;DHT22;19501;50.948;5.316;2024-02-14T00:16:52;9.40;99.90
33139;DHT22;19501;50.948;5.316;2024-02-14T00:19:18;9.40;99.90
33139;DHT22;19501;50.948;5.316;2024-02-14T00:21:43;9.40;99.90
33139;DHT22;19501;50.948;5.316;2024-02-14T00:24:09;9.40;99.90
33139;DHT22;19501;50.948;5.316;2024-02-14T00:26:35;9.40;99.90
33139;DHT22;19501;50.948;5.316;2024-02-14T00:29:01;9.40;99.90
33139;DHT22;19501;50.948;5.316;2024-02-14T00:31:26;9.50;99.90
33139;DHT22;19501;50.948;5.316;2024-02-14T00:33:52;9.50;99.90
33139;DHT22;19501;50.948;5.316;2024-02-14T00:36:18;9.50;99.90
33139;DHT22;19501;50.948;5.316;2024-02-14T00:38:43;9.50;99.90
33139;DHT22;19501;50.948;5.316;2024-02-14T00:41:11;9.50;99.90
33139;DHT22;19501;50.948;5.316;2024-02-14T00:43:36;9.50;99.90
33139;DHT22;19501;50.948;5.316;2024-02-14T00:46:02;9.50;99.90
33139;DHT22;19501;50.948;5.316;2024-02-14T00:48:28;9.60;99.90
33139;DHT22;19501;50.948;5.316;2024-02-14T00:50:53;9.60;99.90
33139;DHT22;19501;50.948;5.316;2024-02-14T00:53:19;9.60;99.90
33139;DHT22;19501;50.948;5.316;2024-02-14T00:55:46;9.60;99.90
33139;DHT22;19501;50.948;5.316;2024-02-14T00:58:14;9.70;99.90
33139;DHT22;19501;50.948;5.316;2024-02-14T01:00:40;9.70;99.90
33139;DHT22;19501;50.948;5.316;2024-02-14T01:03:06;9.70;99.90
33139;DHT22;19501;50.948;5.316;2024-02-14T01:05:32;9.70;99.90
33139;DHT22;19501;50.948;5.316;2024-02-14T01:07:58;9.70;99.90
33139;DHT22;19501;50.948;5.316;2024-02-14T01:10:23;9.70;99.90
33139;DHT22;19501;50.948;5.316;2024-02-14T01:12:49;9.60;99.90
33139;DHT22;19501;50.948;5.316;2024-02-14T01:15:15;9.60;99.90
33139;DHT22;19501;50.948;5.316;2024-02-14T01:17:40;9.60;99.90
33139;DHT22;19501;50.948;5.316;2024-02-14T01:20:06;9.60;99.90
33139;DHT22;19501;50.948;5.316;2024-02-14T01:22:35;9.60;99.90
33139;DHT22;19501;50.948;5.316;2024-02-14T01:25:01;9.60;99.90
33139;DHT22;19501;50.948;5.316;2024-02-14T01:27:28;9.70;99.90
33139;DHT22;19501;50.948;5.316;2024-02-14T01:29:56;9.70;99.90
33139;DHT22;19501;50.948;5.316;2024-02-14T01:32:23;9.70;99.90
33139;DHT22;19501;50.948;5.316;2024-02-14T01:34:48;9.60;99.90
33139;DHT22;19501;50.948;5.316;2024-02-14T01:37:14;9.70;99.90
33139;DHT22;19501;50.948;5.316;2024-02-14T01:39:43;9.70;99.90
33139;DHT22;19501;50.948;5.316;2024-02-14T01:42:09;9.70;99.90
33139;DHT22;19501;50.948;5.316;2024-02-14T01:44:34;9.70;99.90
33139;DHT22;19501;50.948;5.316;2024-02-14T01:47:01;9.70;99.90
33139;DHT22;19501;50.948;5.316;2024-02-14T01:49:27;9.70;99.90
33139;DHT22;19501;50.948;5.316;2024-02-14T01:51:55;9.70;99.90
33139;DHT22;19501;50.948;5.316;2024-02-14T01:54:25;9.80;99.90
33139;DHT22;19501;50.948;5.316;2024-02-14T01:56:51;9.80;99.90
33139;DHT22;19501;50.948;5.316;2024-02-14T01:59:17;9.80;99.90
33139;DHT22;19501;50.948;5.316;2024-02-14T02:01:43;9.80;99.90
33139;DHT22;19501;50.948;5.316;2024-02-14T02:04:09;9.90;99.90
33139;DHT22;19501;50.948;5.316;2024-02-14T02:06:37;9.90;99.90
33139;DHT22;19501;50.948;5.316;2024-02-14T02:09:03;9.80;99.90
33139;DHT22;19501;50.948;5.316;2024-02-14T02:11:29;9.80;99.90
33139;DHT22;19501;50.948;5.316;2024-02-14T02:13:56;9.90;99.90
33139;DHT22;19501;50.948;5.316;2024-02-14T02:16:22;9.90;99.90
33139;DHT22;19501;50.948;5.316;2024-02-14T02:18:47;9.90;99.90
33139;DHT22;19501;50.948;5.316;2024-02-14T02:21:16;9.90;99.90
33139;DHT22;19501;50.948;5.316;2024-02-14T02:23:45;9.80;99.90
33139;DHT22;19501;50.948;5.316;2024-02-14T02:26:13;9.70;99.90
33139;DHT22;19501;50.948;5.316;2024-02-14T02:28:39;9.60;99.90
33139;DHT22;19501;50.948;5.316;2024-02-14T02:31:06;9.50;99.90
33139;DHT22;19501;50.948;5.316;2024-02-14T02:33:35;9.50;99.90
33139;DHT22;19501;50.948;5.316;2024-02-14T02:36:00;9.50;99.90
33139;DHT22;19501;50.948;5.316;2024-02-14T02:38:26;9.60;99.90
33139;DHT22;19501;50.948;5.316;2024-02-14T02:40:51;9.60;99.90
33139;DHT22;19501;50.948;5.316;2024-02-14T02:43:17;9.60;99.90
33139;DHT22;19501;50.948;5.316;2024-02-14T02:45:43;9.70;99.90
33139;DHT22;19501;50.948;5.316;2024-02-14T02:48:09;9.70;99.90
33139;DHT22;19501;50.948;5.316;2024-02-14T02:50:35;9.60;99.90
33139;DHT22;19501;50.948;5.316;2024-02-14T02:53:00;9.60;99.90
33139;DHT22;19501;50.948;5.316;2024-02-14T02:55:27;9.70;99.90
33139;DHT22;19501;50.948;5.316;2024-02-14T02:57:52;9.70;99.90
33139;DHT22;19501;50.948;5.316;2024-02-14T03:00:18;9.70;99.90
33139;DHT22;19501;50.948;5.316;2024-02-14T03:02:46;9.70;99.90
33139;DHT22;19501;50.948;5.316;2024-02-14T03:05:12;9.70;99.90
33139;DHT22;19501;50.948;5.316;2024-02-14T03:07:46;9.70;99.90
33139;DHT22;19501;50.948;5.316;2024-02-14T03:10:14;9.70;99.90
33139;DHT22;19501;50.948;5.316;2024-02-14T03:12:46;9.60;99.90
33139;DHT22;19501;50.948;5.316;2024-02-14T03:15:12;9.60;99.90
33139;DHT22;19501;50.948;5.316;2024-02-14T03:17:39;9.60;99.90
33139;DHT22;19501;50.948;5.316;2024-02-14T03:20:05;9.60;99.90
33139;DHT22;19501;50.948;5.316;2024-02-14T03:22:36;9.60;99.90
33139;DHT22;19501;50.948;5.316;2024-02-14T03:25:02;9.60;99.90
33139;DHT22;19501;50.948;5.316;2024-02-14T03:27:28;9.80;99.90
33139;DHT22;19501;50.948;5.316;2024-02-14T03:29:56;9.80;99.90
33139;DHT22;19501;50.948;5.316;2024-02-14T03:32:23;9.70;99.90
33139;DHT22;19501;50.948;5.316;2024-02-14T03:34:49;9.80;99.90
33139;DHT22;19501;50.948;5.316;2024-02-14T03:37:15;9.70;99.90
33139;DHT22;19501;50.948;5.316;2024-02-14T03:39:40;9.70;99.90
33139;DHT22;19501;50.948;5.316;2024-02-14T03:42:08;9.70;99.90
33139;DHT22;19501;50.948;5.316;2024-02-14T03:44:34;9.70;99.90
33139;DHT22;19501;50.948;5.316;2024-02-14T03:47:00;9.70;99.90
33139;DHT22;19501;50.948;5.316;2024-02-14T03:49:26;9.70;99.90
33139;DHT22;19501;50.948;5.316;2024-02-14T03:51:55;9.70;99.90
33139;DHT22;19501;50.948;5.316;2024-02-14T03:54:21;9.70;99.90
33139;DHT22;19501;50.948;5.316;2024-02-14T03:56:49;9.70;99.90
33139;DHT22;19501;50.948;5.316;2024-02-14T03:59:14;9.70;99.90
33139;DHT22;19501;50.948;5.316;2024-02-14T04:01:46;9.60;99.90
33139;DHT22;19501;50.948;5.316;2024-02-14T04:04:12;9.60;99.90
33139;DHT22;19501;50.948;5.316;2024-02-14T04:06:38;9.60;99.90
33139;DHT22;19501;50.948;5.316;2024-02-14T04:09:03;9.60;99.90
33139;DHT22;19501;50.948;5.316;2024-02-14T04:11:29;9.60;99.90
33139;DHT22;19501;50.948;5.316;2024-02-14T04:13:55;9.60;99.90
33139;DHT22;19501;50.948;5.316;2024-02-14T04:16:21;9.50;99.90
33139;DHT22;19501;50.948;5.316;2024-02-14T04:18:49;9.50;99.90
33139;DHT22;19501;50.948;5.316;2024-02-14T04:21:15;9.50;99.90
33139;DHT22;19501;50.948;5.316;2024-02-14T04:23:41;9.50;99.90
33139;DHT22;19501;50.948;5.316;2024-02-14T04:26:07;9.50;99.90
33139;DHT22;19501;50.948;5.316;2024-02-14T04:28:33;9.50;99.90
33139;DHT22;19501;50.948;5.316;2024-02-14T04:30:59;9.50;99.90
33139;DHT22;19501;50.948;5.316;2024-02-14T04:33:24;9.60;99.90
33139;DHT22;19501;50.948;5.316;2024-02-14T04:35:51;9.60;99.90
33139;DHT22;19501;50.948;5.316;2024-02-14T04:38:16;9.60;99.90
33139;DHT22;19501;50.948;5.316;2024-02-14T04:40:45;9.60;99.90
33139;DHT22;19501;50.948;5.316;2024-02-14T04:43:10;9.60;99.90
33139;DHT22;19501;50.948;5.316;2024-02-14T04:45:36;9.70;99.90
33139;DHT22;19501;50.948;5.316;2024-02-14T04:48:02;9.70;99.90
33139;DHT22;19501;50.948;5.316;2024-02-14T04:50:28;9.60;99.90
33139;DHT22;19501;50.948;5.316;2024-02-14T04:52:54;9.60;99.90
33139;DHT22;19501;50.948;5.316;2024-02-14T04:55:20;9.60;99.90
33139;DHT22;19501;50.948;5.316;2024-02-14T04:57:46;9.60;99.90
33139;DHT22;19501;50.948;5.316;2024-02-14T05:00:12;9.50;99.90
33139;DHT22;19501;50.948;5.316;2024-02-14T05:02:38;9.50;99.90
33139;DHT22;19501;50.948;5.316;2024-02-14T05:05:04;9.60;99.90
33139;DHT22;19501;50.948;5.316;2024-02-14T05:07:29;9.60;99.90
33139;DHT22;19501;50.948;5.316;2024-02-14T05:09:55;9.60;99.90
33139;DHT22;19501;50.948;5.316;2024-02-14T05:12:22;9.60;99.90
33139;DHT22;19501;50.948;5.316;2024-02-14T05:14:47;9.60;99.90
33139;DHT22;19501;50.948;5.316;2024-02-14T05:17:14;9.60;99.90
33139;DHT22;19501;50.948;5.316;2024-02-14T05:19:42;9.70;99.90
33139;DHT22;19501;50.948;5.316;2024-02-14T05:22:08;9.80;99.90
33139;DHT22;19501;50.948;5.316;2024-02-14T05:24:33;9.80;99.90
33139;DHT22;19501;50.948;5.316;2024-02-14T05:27:01;9.80;99.90
33139;DHT22;19501;50.948;5.316;2024-02-14T05:29:27;9.80;99.90
33139;DHT22;19501;50.948;5.316;2024-02-14T05:31:55;9.80;99.90
33139;DHT22;19501;50.948;5.316;2024-02-14T05:34:21;9.80;99.90
33139;DHT22;19501;50.948;5.316;2024-02-14T05:36:47;9.80;99.90
33139;DHT22;19501;50.948;5.316;2024-02-14T05:39:13;9.80;99.90
33139;DHT22;19501;50.948;5.316;2024-02-14T05:41:40;9.90;99.90
33139;DHT22;19501;50.948;5.316;2024-02-14T05:44:05;9.90;99.90
33139;DHT22;19501;50.948;5.316;2024-02-14T05:46:31;10.00;99.90
33139;DHT22;19501;50.948;5.316;2024-02-14T05:48:57;9.90;99.90
33139;DHT22;19501;50.948;5.316;2024-02-14T05:51:23;9.90;99.90
33139;DHT22;19501;50.948;5.316;2024-02-14T05:53:49;9.90;99.90
33139;DHT22;19501;50.948;5.316;2024-02-14T05:56:15;10.00;99.90
33139;DHT22;19501;50.948;5.316;2024-02-14T05:58:40;10.00;99.90
33139;DHT22;19501;50.948;5.316;2024-02-14T06:01:06;10.00;99.90
33139;DHT22;19501;50.948;5.316;2024-02-14T06:03:32;10.00;99.90
33139;DHT22;19501;50.948;5.316;2024-02-14T06:05:57;10.00;99.90
33139;DHT22;19501;50.948;5.316;2024-02-14T06:08:23;10.00;99.90
33139;DHT22;19501;50.948;5.316;2024-02-14T06:10:49;9.90;99.90
33139;DHT22;19501;50.948;5.316;2024-02-14T06:13:15;9.90;99.90
33139;DHT22;19501;50.948;5.316;2024-02-14T06:15:41;10.00;99.90
33139;DHT22;19501;50.948;5.316;2024-02-14T06:18:09;9.90;99.90
33139;DHT22;19501;50.948;5.316;2024-02-14T06:20:35;9.90;99.90
33139;DHT22;19501;50.948;5.316;2024-02-14T06:23:00;9.90;99.90
33139;DHT22;19501;50.948;5.316;2024-02-14T06:25:26;9.90;99.90
33139;DHT22;19501;50.948;5.316;2024-02-14T06:27:52;10.00;99.90
33139;DHT22;19501;50.948;5.316;2024-02-14T06:30:19;10.00;99.90
33139;DHT22;19501;50.948;5.316;2024-02-14T06:32:45;10.10;99.90
33139;DHT22;19501;50.948;5.316;2024-02-14T06:35:10;10.10;99.90
33139;DHT22;19501;50.948;5.316;2024-02-14T06:37:36;10.10;99.90
33139;DHT22;19501;50.948;5.316;2024-02-14T06:40:02;10.20;99.90
33139;DHT22;19501;50.948;5.316;2024-02-14T06:42:28;10.20;99.90
33139;DHT22;19501;50.948;5.316;2024-02-14T06:44:54;10.20;99.90
33139;DHT22;19501;50.948;5.316;2024-02-14T06:47:19;10.10;99.90
33139;DHT22;19501;50.948;5.316;2024-02-14T06:49:45;10.10;99.90
33139;DHT22;19501;50.948;5.316;2024-02-14T06:52:10;10.10;99.90
33139;DHT22;19501;50.948;5.316;2024-02-14T06:54:36;10.00;99.90
33139;DHT22;19501;50.948;5.316;2024-02-14T06:57:02;10.00;99.90
33139;DHT22;19501;50.948;5.316;2024-02-14T06:59:28;10.10;99.90
33139;DHT22;19501;50.948;5.316;2024-02-14T07:01:53;10.10;99.90
33139;DHT22;19501;50.948;5.316;2024-02-14T07:04:23;10.10;99.90
33139;DHT22;19501;50.948;5.316;2024-02-14T07:06:53;10.20;99.90
33139;DHT22;19501;50.948;5.316;2024-02-14T07:09:19;10.20;99.90
33139;DHT22;19501;50.948;5.316;2024-02-14T07:11:45;10.20;99.90
33139;DHT22;19501;50.948;5.316;2024-02-14T07:14:14;10.20;99.90
33139;DHT22;19501;50.948;5.316;2024-02-14T07:16:40;10.20;99.90
33139;DHT22;19501;50.948;5.316;2024-02-14T07:19:06;10.30;99.90
33139;DHT22;19501;50.948;5.316;2024-02-14T07:21:32;10.40;99.90
33139;DHT22;19501;50.948;5.316;2024-02-14T07:23:58;10.40;99.90
33139;DHT22;19501;50.948;5.316;2024-02-14T07:26:24;10.40;99.90
33139;DHT22;19501;50.948;5.316;2024-02-14T07:28:50;10.40;99.90
33139;DHT22;19501;50.948;5.316;2024-02-14T07:31:15;10.50;99.90
33139;DHT22;19501;50.948;5.316;2024-02-14T07:33:41;10.50;99.90
33139;DHT22;19501;50.948;5.316;2024-02-14T07:36:08;10.50;99.90
33139;DHT22;19501;50.948;5.316;2024-02-14T07:38:34;10.60;99.90
33139;DHT22;19501;50.948;5.316;2024-02-14T07:41:00;10.60;99.90
33139;DHT22;19501;50.948;5.316;2024-02-14T07:43:25;10.60;99.90
33139;DHT22;19501;50.948;5.316;2024-02-14T07:45:52;10.70;99.90
33139;DHT22;19501;50.948;5.316;2024-02-14T07:48:17;10.80;99.90
33139;DHT22;19501;50.948;5.316;2024-02-14T07:50:45;10.80;99.90
33139;DHT22;19501;50.948;5.316;2024-02-14T07:53:11;10.90;99.90
33139;DHT22;19501;50.948;5.316;2024-02-14T07:55:36;10.90;99.90
33139;DHT22;19501;50.948;5.316;2024-02-14T07:58:04;10.90;99.90
33139;DHT22;19501;50.948;5.316;2024-02-14T08:00:30;10.90;99.90
33139;DHT22;19501;50.948;5.316;2024-02-14T08:02:55;11.00;99.90
33139;DHT22;19501;50.948;5.316;2024-02-14T08:05:21;11.10;99.90
33139;DHT22;19501;50.948;5.316;2024-02-14T08:07:47;11.20;99.90
33139;DHT22;19501;50.948;5.316;2024-02-14T08:10:13;11.20;99.90
33139;DHT22;19501;50.948;5.316;2024-02-14T08:12:38;11.10;99.90
33139;DHT22;19501;50.948;5.316;2024-02-14T08:15:04;11.20;99.90
33139;DHT22;19501;50.948;5.316;2024-02-14T08:17:32;11.20;99.90
33139;DHT22;19501;50.948;5.316;2024-02-14T08:19:58;11.20;99.90
33139;DHT22;19501;50.948;5.316;2024-02-14T08:22:24;11.20;99.90
33139;DHT22;19501;50.948;5.316;2024-02-14T08:24:53;11.20;99.90
33139;DHT22;19501;50.948;5.316;2024-02-14T08:27:18;11.30;99.90
33139;DHT22;19501;50.948;5.316;2024-02-14T08:29:44;11.30;99.90
33139;DHT22;19501;50.948;5.316;2024-02-14T08:32:09;11.40;99.90
33139;DHT22;19501;50.948;5.316;2024-02-14T08:34:35;11.40;99.90
33139;DHT22;19501;50.948;5.316;2024-02-14T08:37:01;11.30;99.90
33139;DHT22;19501;50.948;5.316;2024-02-14T08:39:26;11.30;99.90
33139;DHT22;19501;50.948;5.316;2024-02-14T08:41:54;11.30;99.90
33139;DHT22;19501;50.948;5.316;2024-02-14T08:44:21;11.40;99.90
33139;DHT22;19501;50.948;5.316;2024-02-14T08:46:46;11.40;99.90
33139;DHT22;19501;50.948;5.316;2024-02-14T08:49:14;11.50;99.90
33139;DHT22;19501;50.948;5.316;2024-02-14T08:51:40;11.50;99.90
33139;DHT22;19501;50.948;5.316;2024-02-14T08:54:05;11.40;99.90
33139;DHT22;19501;50.948;5.316;2024-02-14T08:56:34;11.40;99.90
33139;DHT22;19501;50.948;5.316;2024-02-14T08:59:03;11.50;99.90
33139;DHT22;19501;50.948;5.316;2024-02-14T09:01:30;11.60;99.90
33139;DHT22;19501;50.948;5.316;2024-02-14T09:03:58;11.60;99.90
33139;DHT22;19501;50.948;5.316;2024-02-14T09:06:24;11.50;99.90
33139;DHT22;19501;50.948;5.316;2024-02-14T09:08:52;11.50;99.90
33139;DHT22;19501;50.948;5.316;2024-02-14T09:11:19;11.50;99.90
33139;DHT22;19501;50.948;5.316;2024-02-14T09:13:44;11.50;99.90
33139;DHT22;19501;50.948;5.316;2024-02-14T09:16:13;11.50;99.90
33139;DHT22;19501;50.948;5.316;2024-02-14T09:18:40;11.40;99.90
33139;DHT22;19501;50.948;5.316;2024-02-14T09:21:06;11.20;99.90
33139;DHT22;19501;50.948;5.316;2024-02-14T09:23:32;11.10;99.90
33139;DHT22;19501;50.948;5.316;2024-02-14T09:25:58;11.10;99.90
33139;DHT22;19501;50.948;5.316;2024-02-14T09:28:24;11.00;99.90
33139;DHT22;19501;50.948;5.316;2024-02-14T09:30:51;11.00;99.90
33139;DHT22;19501;50.948;5.316;2024-02-14T09:33:22;10.90;99.90
33139;DHT22;19501;50.948;5.316;2024-02-14T09:35:48;10.90;99.90
33139;DHT22;19501;50.948;5.316;2024-02-14T09:38:14;11.00;99.90
33139;DHT22;19501;50.948;5.316;2024-02-14T09:40:41;11.00;99.90
33139;DHT22;19501;50.948;5.316;2024-02-14T09:45:50;11.00;99.90
33139;DHT22;19501;50.948;5.316;2024-02-14T09:48:17;11.00;99.90
33139;DHT22;19501;50.948;5.316;2024-02-14T09:50:45;11.10;99.90
33139;DHT22;19501;50.948;5.316;2024-02-14T09:53:12;11.00;99.90
33139;DHT22;19501;50.948;5.316;2024-02-14T09:55:38;11.00;99.90
33139;DHT22;19501;50.948;5.316;2024-02-14T09:58:05;11.10;99.90
33139;DHT22;19501;50.948;5.316;2024-02-14T10:00:32;11.00;99.90
33139;DHT22;19501;50.948;5.316;2024-02-14T10:02:59;11.00;99.90
33139;DHT22;19501;50.948;5.316;2024-02-14T10:05:27;11.10;99.90
33139;DHT22;19501;50.948;5.316;2024-02-14T10:07:56;11.10;99.90
33139;DHT22;19501;50.948;5.316;2024-02-14T10:10:22;11.10;99.90
33139;DHT22;19501;50.948;5.316;2024-02-14T10:12:47;11.10;99.90
33139;DHT22;19501;50.948;5.316;2024-02-14T10:15:13;11.20;99.90
33139;DHT22;19501;50.948;5.316;2024-02-14T10:17:39;11.10;99.90
33139;DHT22;19501;50.948;5.316;2024-02-14T10:20:07;11.20;99.90
33139;DHT22;19501;50.948;5.316;2024-02-14T10:22:37;11.20;99.90
33139;DHT22;19501;50.948;5.316;2024-02-14T10:25:06;11.40;99.90
33139;DHT22;19501;50.948;5.316;2024-02-14T10:27:40;11.50;99.90
33139;DHT22;19501;50.948;5.316;2024-02-14T10:30:09;11.50;99.90
33139;DHT22;19501;50.948;5.316;2024-02-14T10:32:35;11.60;99.90
33139;DHT22;19501;50.948;5.316;2024-02-14T10:35:04;11.70;99.90
33139;DHT22;19501;50.948;5.316;2024-02-14T10:37:37;11.60;99.90
33139;DHT22;19501;50.948;5.316;2024-02-14T10:40:04;11.70;99.90
33139;DHT22;19501;50.948;5.316;2024-02-14T10:42:33;11.80;99.90
33139;DHT22;19501;50.948;5.316;2024-02-14T10:44:59;11.70;99.90
33139;DHT22;19501;50.948;5.316;2024-02-14T10:47:31;11.60;99.90
33139;DHT22;19501;50.948;5.316;2024-02-14T10:50:00;11.60;99.90
33139;DHT22;19501;50.948;5.316;2024-02-14T10:52:32;11.60;99.90
33139;DHT22;19501;50.948;5.316;2024-02-14T10:55:04;11.50;99.90
33139;DHT22;19501;50.948;5.316;2024-02-14T10:57:31;11.50;99.90
33139;DHT22;19501;50.948;5.316;2024-02-14T11:00:03;11.40;99.90
33139;DHT22;19501;50.948;5.316;2024-02-14T11:02:30;11.40;99.90
33139;DHT22;19501;50.948;5.316;2024-02-14T11:04:58;11.40;99.90
33139;DHT22;19501;50.948;5.316;2024-02-14T11:07:23;11.50;99.90
33139;DHT22;19501;50.948;5.316;2024-02-14T11:10:12;11.40;99.90
33139;DHT22;19501;50.948;5.316;2024-02-14T11:12:39;11.40;99.90
33139;DHT22;19501;50.948;5.316;2024-02-14T11:15:21;11.40;99.90
33139;DHT22;19501;50.948;5.316;2024-02-14T11:17:48;11.40;99.90
33139;DHT22;19501;50.948;5.316;2024-02-14T11:20:33;11.40;99.90
33139;DHT22;19501;50.948;5.316;2024-02-14T11:23:06;11.40;99.90
33139;DHT22;19501;50.948;5.316;2024-02-14T11:25:36;11.30;99.90
33139;DHT22;19501;50.948;5.316;2024-02-14T11:28:24;11.40;99.90
33139;DHT22;19501;50.948;5.316;2024-02-14T11:30:51;11.40;99.90
33139;DHT22;19501;50.948;5.316;2024-02-14T11:33:24;11.40;99.90
33139;DHT22;19501;50.948;5.316;2024-02-14T11:35:53;11.40;99.90
33139;DHT22;19501;50.948;5.316;2024-02-14T11:38:23;11.50;99.90
33139;DHT22;19501;50.948;5.316;2024-02-14T11:40:56;11.40;99.90
33139;DHT22;19501;50.948;5.316;2024-02-14T11:43:26;11.40;99.90
33139;DHT22;19501;50.948;5.316;2024-02-14T11:45:52;11.40;99.90
33139;DHT22;19501;50.948;5.316;2024-02-14T11:48:18;11.50;99.90
33139;DHT22;19501;50.948;5.316;2024-02-14T11:50:49;11.50;99.90
33139;DHT22;19501;50.948;5.316;2024-02-14T11:53:15;11.50;99.90
33139;DHT22;19501;50.948;5.316;2024-02-14T11:55:45;11.50;99.90
33139;DHT22;19501;50.948;5.316;2024-02-14T11:58:13;11.50;99.90
33139;DHT22;19501;50.948;5.316;2024-02-14T12:00:40;11.50;99.90
33139;DHT22;19501;50.948;5.316;2024-02-14T12:03:22;11.50;99.90
33139;DHT22;19501;50.948;5.316;2024-02-14T12:05:49;11.50;99.90
33139;DHT22;19501;50.948;5.316;2024-02-14T12:08:16;11.60;99.90
33139;DHT22;19501;50.948;5.316;2024-02-14T12:10:43;11.50;99.90
33139;DHT22;19501;50.948;5.316;2024-02-14T12:13:14;11.60;99.90
33139;DHT22;19501;50.948;5.316;2024-02-14T12:15:47;11.60;99.90
33139;DHT22;19501;50.948;5.316;2024-02-14T12:18:14;11.60;99.90
33139;DHT22;19501;50.948;5.316;2024-02-14T12:20:41;11.70;99.90
33139;DHT22;19501;50.948;5.316;2024-02-14T12:23:06;11.60;99.90
33139;DHT22;19501;50.948;5.316;2024-02-14T12:25:33;11.60;99.90
33139;DHT22;19501;50.948;5.316;2024-02-14T12:27:59;11.60;99.90
33139;DHT22;19501;50.948;5.316;2024-02-14T12:30:46;11.60;99.90
33139;DHT22;19501;50.948;5.316;2024-02-14T12:33:13;11.60;99.90
33139;DHT22;19501;50.948;5.316;2024-02-14T12:35:46;11.60;99.90
33139;DHT22;19501;50.948;5.316;2024-02-14T12:38:13;11.60;99.90
33139;DHT22;19501;50.948;5.316;2024-02-14T12:40:39;11.50;99.90
33139;DHT22;19501;50.948;5.316;2024-02-14T12:43:13;11.60;99.90
33139;DHT22;19501;50.948;5.316;2024-02-14T12:45:40;11.60;99.90
33139;DHT22;19501;50.948;5.316;2024-02-14T12:48:09;11.60;99.90
33139;DHT22;19501;50.948;5.316;2024-02-14T12:50:36;11.60;99.90
33139;DHT22;19501;50.948;5.316;2024-02-14T12:53:06;11.60;99.90
33139;DHT22;19501;50.948;5.316;2024-02-14T12:55:32;11.60;99.90
33139;DHT22;19501;50.948;5.316;2024-02-14T12:57:58;11.60;99.90
33139;DHT22;19501;50.948;5.316;2024-02-14T13:00:27;11.70;99.90
33139;DHT22;19501;50.948;5.316;2024-02-14T13:02:54;11.60;99.90
33139;DHT22;19501;50.948;5.316;2024-02-14T13:05:20;11.70;99.90
33139;DHT22;19501;50.948;5.316;2024-02-14T13:07:46;11.70;99.90
33139;DHT22;19501;50.948;5.316;2024-02-14T13:10:12;11.70;99.90
33139;DHT22;19501;50.948;5.316;2024-02-14T13:12:38;11.80;99.90
33139;DHT22;19501;50.948;5.316;2024-02-14T13:15:05;11.80;99.90
33139;DHT22;19501;50.948;5.316;2024-02-14T13:17:31;11.90;99.90
33139;DHT22;19501;50.948;5.316;2024-02-14T13:19:59;11.90;99.90
33139;DHT22;19501;50.948;5.316;2024-02-14T13:22:26;11.80;99.90
33139;DHT22;19501;50.948;5.316;2024-02-14T13:24:51;11.80;99.90
33139;DHT22;19501;50.948;5.316;2024-02-14T13:27:17;11.90;99.90
33139;DHT22;19501;50.948;5.316;2024-02-14T13:29:47;11.90;99.90
33139;DHT22;19501;50.948;5.316;2024-02-14T13:32:13;11.90;99.90
33139;DHT22;19501;50.948;5.316;2024-02-14T13:34:39;11.90;99.90
33139;DHT22;19501;50.948;5.316;2024-02-14T13:37:05;11.90;99.90
33139;DHT22;19501;50.948;5.316;2024-02-14T13:39:31;11.90;99.90
33139;DHT22;19501;50.948;5.316;2024-02-14T13:41:59;11.90;99.90
33139;DHT22;19501;50.948;5.316;2024-02-14T13:44:26;11.90;99.90
33139;DHT22;19501;50.948;5.316;2024-02-14T13:46:52;11.90;99.90
33139;DHT22;19501;50.948;5.316;2024-02-14T13:49:19;11.90;99.90
33139;DHT22;19501;50.948;5.316;2024-02-14T13:51:56;11.90;99.90
33139;DHT22;19501;50.948;5.316;2024-02-14T13:54:23;11.80;99.90
33139;DHT22;19501;50.948;5.316;2024-02-14T13:56:49;11.90;99.90
33139;DHT22;19501;50.948;5.316;2024-02-14T13:59:16;11.90;99.90
33139;DHT22;19501;50.948;5.316;2024-02-14T14:01:42;11.90;99.90
33139;DHT22;19501;50.948;5.316;2024-02-14T14:04:10;11.90;99.90
33139;DHT22;19501;50.948;5.316;2024-02-14T14:06:35;11.90;99.90
33139;DHT22;19501;50.948;5.316;2024-02-14T14:09:01;12.00;99.90
33139;DHT22;19501;50.948;5.316;2024-02-14T14:11:28;11.90;99.90
33139;DHT22;19501;50.948;5.316;2024-02-14T14:13:54;12.00;99.90
33139;DHT22;19501;50.948;5.316;2024-02-14T14:16:20;11.90;99.90
33139;DHT22;19501;50.948;5.316;2024-02-14T14:18:50;11.90;99.90
33139;DHT22;19501;50.948;5.316;2024-02-14T14:21:16;12.00;99.90
33139;DHT22;19501;50.948;5.316;2024-02-14T14:23:41;11.90;99.90
33139;DHT22;19501;50.948;5.316;2024-02-14T14:26:07;11.90;99.90
33139;DHT22;19501;50.948;5.316;2024-02-14T14:28:33;11.90;99.90
33139;DHT22;19501;50.948;5.316;2024-02-14T14:30:59;12.00;99.90
33139;DHT22;19501;50.948;5.316;2024-02-14T14:33:26;12.00;99.90
33139;DHT22;19501;50.948;5.316;2024-02-14T14:35:52;12.00;99.90
33139;DHT22;19501;50.948;5.316;2024-02-14T14:38:19;12.00;99.90
33139;DHT22;19501;50.948;5.316;2024-02-14T14:40:47;12.00;99.90
33139;DHT22;19501;50.948;5.316;2024-02-14T14:43:14;12.00;99.90
33139;DHT22;19501;50.948;5.316;2024-02-14T14:45:40;12.10;99.90
33139;DHT22;19501;50.948;5.316;2024-02-14T14:48:07;12.00;99.90
33139;DHT22;19501;50.948;5.316;2024-02-14T14:50:35;12.10;99.90
33139;DHT22;19501;50.948;5.316;2024-02-14T14:53:00;12.10;99.90
33139;DHT22;19501;50.948;5.316;2024-02-14T14:55:49;12.10;99.90
33139;DHT22;19501;50.948;5.316;2024-02-14T14:58:15;12.10;99.90
33139;DHT22;19501;50.948;5.316;2024-02-14T15:00:42;12.10;99.90
33139;DHT22;19501;50.948;5.316;2024-02-14T15:03:08;12.00;99.90
33139;DHT22;19501;50.948;5.316;2024-02-14T15:05:34;12.10;99.90
33139;DHT22;19501;50.948;5.316;2024-02-14T15:07:59;12.10;99.90
33139;DHT22;19501;50.948;5.316;2024-02-14T15:10:25;12.20;99.90
33139;DHT22;19501;50.948;5.316;2024-02-14T15:12:51;12.10;99.90
33139;DHT22;19501;50.948;5.316;2024-02-14T15:15:16;12.20;99.90
33139;DHT22;19501;50.948;5.316;2024-02-14T15:17:44;12.10;99.90
33139;DHT22;19501;50.948;5.316;2024-02-14T15:20:10;12.30;99.90
33139;DHT22;19501;50.948;5.316;2024-02-14T15:22:36;12.20;99.90
33139;DHT22;19501;50.948;5.316;2024-02-14T15:25:01;12.30;99.90
33139;DHT22;19501;50.948;5.316;2024-02-14T15:27:29;12.30;99.90
33139;DHT22;19501;50.948;5.316;2024-02-14T15:29:56;12.30;99.90
33139;DHT22;19501;50.948;5.316;2024-02-14T15:32:41;12.20;99.90
33139;DHT22;19501;50.948;5.316;2024-02-14T15:35:35;12.20;99.90
33139;DHT22;19501;50.948;5.316;2024-02-14T15:38:01;12.30;99.90
33139;DHT22;19501;50.948;5.316;2024-02-14T15:40:29;12.30;99.90